createdAt,value
2022-09-30T00:01:39.787Z,6.63
2022-09-30T00:04:11.889Z,6.63
2022-09-30T00:06:40.009Z,6.95
2022-09-30T00:09:08.441Z,7.65
2022-09-30T00:11:39.374Z,7.28
2022-09-30T00:14:08.457Z,7.35
2022-09-30T00:16:38.094Z,8.23
2022-09-30T00:19:06.609Z,7.93
2022-09-30T00:21:36.043Z,7.70
2022-09-30T00:24:05.690Z,8.02
2022-09-30T00:26:34.281Z,7.90
2022-09-30T00:29:03.222Z,7.90
2022-09-30T00:31:33.246Z,7.82
2022-09-30T00:34:11.810Z,8.98
2022-09-30T00:36:44.608Z,7.75
2022-09-30T00:39:15.005Z,8.43
2022-09-30T00:41:43.418Z,8.25
2022-09-30T00:44:51.290Z,8.15
2022-09-30T00:47:43.510Z,7.63
2022-09-30T00:50:30.846Z,7.45
2022-09-30T00:53:08.965Z,7.65
2022-09-30T00:55:47.396Z,7.03
2022-09-30T00:58:19.249Z,7.57
2022-09-30T01:00:48.352Z,8.40
2022-09-30T01:03:16.402Z,7.68
2022-09-30T01:05:44.674Z,7.97
2022-09-30T01:08:14.145Z,7.95
2022-09-30T01:10:42.211Z,7.68
2022-09-30T01:13:10.334Z,7.40
2022-09-30T01:15:51.385Z,8.50
2022-09-30T01:18:27.313Z,7.60
2022-09-30T01:21:34.801Z,9.43
2022-09-30T01:24:25.646Z,8.82
2022-09-30T01:27:13.439Z,8.63
2022-09-30T01:30:09.510Z,9.57
2022-09-30T01:33:01.837Z,9.63
2022-09-30T01:35:40.053Z,9.98
2022-09-30T01:38:15.072Z,9.48
2022-09-30T01:40:49.629Z,10.65
2022-09-30T01:43:29.760Z,10.85
2022-09-30T01:46:00.324Z,9.85
2022-09-30T01:48:42.551Z,10.18
2022-09-30T01:51:18.137Z,10.93
2022-09-30T01:53:51.331Z,10.73
2022-09-30T01:56:23.780Z,11.52
2022-09-30T01:58:55.193Z,11.05
2022-09-30T02:01:31.709Z,10.23
2022-09-30T02:04:06.923Z,11.38
2022-09-30T02:06:39.598Z,10.40
2022-09-30T02:09:13.315Z,10.88
2022-09-30T02:11:42.985Z,10.57
2022-09-30T02:14:16.258Z,10.35
2022-09-30T02:16:48.302Z,10.00
2022-09-30T02:19:23.372Z,10.48
2022-09-30T02:21:57.043Z,10.55
2022-09-30T02:24:27.779Z,10.70
2022-09-30T02:26:59.502Z,10.07
2022-09-30T02:29:31.189Z,9.77
2022-09-30T02:32:06.229Z,10.52
2022-09-30T02:34:39.372Z,10.00
2022-09-30T02:37:13.290Z,9.73
2022-09-30T02:39:45.729Z,8.90
2022-09-30T02:42:20.291Z,8.93
2022-09-30T02:44:49.980Z,8.43
2022-09-30T02:47:26.734Z,8.68
2022-09-30T02:50:01.877Z,8.80
2022-09-30T02:52:43.901Z,8.70
2022-09-30T02:55:19.830Z,10.48
2022-09-30T02:57:58.996Z,10.93
2022-09-30T03:00:27.790Z,10.18
2022-09-30T03:03:01.597Z,10.13
2022-09-30T03:05:31.055Z,10.50
2022-09-30T03:07:59.259Z,10.48
2022-09-30T03:10:27.295Z,10.20
2022-09-30T03:13:16.542Z,10.00
2022-09-30T03:15:57.190Z,10.35
2022-09-30T03:18:48.230Z,10.25
2022-09-30T03:21:33.942Z,10.00
2022-09-30T03:24:23.678Z,10.65
2022-09-30T03:27:01.750Z,10.82
2022-09-30T03:29:39.236Z,10.20
2022-09-30T03:32:19.938Z,11.10
2022-09-30T03:35:13.545Z,11.10
2022-09-30T03:37:52.886Z,10.63
2022-09-30T03:40:28.931Z,11.23
2022-09-30T03:43:01.790Z,12.30
2022-09-30T03:45:34.673Z,12.20
2022-09-30T03:48:06.470Z,10.93
2022-09-30T03:50:36.999Z,11.73
2022-09-30T03:53:12.649Z,10.25
2022-09-30T03:55:49.370Z,10.30
2022-09-30T03:58:18.991Z,11.60
2022-09-30T04:00:50.733Z,11.32
2022-09-30T04:03:20.749Z,12.48
2022-09-30T04:05:49.332Z,12.80
2022-09-30T04:08:18.842Z,12.40
2022-09-30T04:10:47.090Z,12.77
2022-09-30T04:13:15.107Z,12.00
2022-09-30T04:15:43.114Z,11.82
2022-09-30T04:18:11.126Z,12.30
2022-09-30T04:20:39.715Z,13.25
2022-09-30T04:23:07.790Z,12.43
2022-09-30T04:25:37.210Z,12.20
2022-09-30T04:28:05.237Z,11.98
2022-09-30T04:30:33.806Z,12.00
2022-09-30T04:33:01.936Z,12.38
2022-09-30T04:35:30.363Z,12.90
2022-09-30T04:37:58.531Z,11.90
2022-09-30T04:40:26.638Z,10.77
2022-09-30T04:42:58.583Z,10.13
2022-09-30T04:45:26.690Z,9.95
2022-09-30T04:47:54.968Z,9.52
2022-09-30T04:50:23.127Z,9.70
2022-09-30T04:52:51.866Z,8.65
2022-09-30T04:55:19.922Z,8.63
2022-09-30T04:57:47.998Z,9.05
2022-09-30T05:00:17.450Z,8.80
2022-09-30T05:02:45.931Z,8.23
2022-09-30T05:05:14.217Z,8.98
2022-09-30T05:07:42.247Z,9.27
2022-09-30T05:10:11.584Z,8.68
2022-09-30T05:12:41.007Z,9.27
2022-09-30T05:15:10.445Z,10.02
2022-09-30T05:17:39.856Z,10.50
2022-09-30T05:20:10.871Z,13.32
2022-09-30T05:22:39.467Z,12.50
2022-09-30T05:25:08.300Z,12.40
2022-09-30T05:27:36.409Z,15.80
2022-09-30T05:30:06.731Z,13.52
2022-09-30T05:32:34.902Z,14.55
2022-09-30T05:35:04.648Z,10.50
2022-09-30T05:37:32.669Z,19.50
2022-09-30T05:40:01.166Z,13.15
2022-09-30T05:42:29.179Z,13.20
2022-09-30T05:44:57.216Z,14.82
2022-09-30T05:47:25.323Z,13.63
2022-09-30T05:49:56.107Z,10.95
2022-09-30T05:52:25.979Z,13.18
2022-09-30T05:54:54.253Z,11.70
2022-09-30T05:57:22.266Z,14.60
2022-09-30T05:59:51.027Z,11.75
2022-09-30T06:02:19.149Z,10.75
2022-09-30T06:04:47.200Z,10.68
2022-09-30T06:07:15.242Z,11.10
2022-09-30T06:09:46.136Z,11.82
2022-09-30T06:12:14.280Z,10.52
2022-09-30T06:14:42.297Z,14.48
2022-09-30T06:17:10.384Z,13.52
2022-09-30T06:19:40.292Z,11.73
2022-09-30T06:22:08.335Z,12.73
2022-09-30T06:24:36.517Z,11.13
2022-09-30T06:27:05.947Z,14.30
2022-09-30T06:29:33.962Z,10.18
2022-09-30T06:32:02.788Z,10.80
2022-09-30T06:34:30.921Z,10.13
2022-09-30T06:36:59.087Z,12.40
2022-09-30T06:39:28.205Z,11.85
2022-09-30T06:41:56.434Z,11.73
2022-09-30T06:44:28.430Z,10.93
2022-09-30T06:46:56.536Z,10.52
2022-09-30T06:49:25.041Z,10.75
2022-09-30T06:51:53.338Z,10.48
2022-09-30T06:54:21.995Z,10.27
2022-09-30T06:56:53.412Z,10.38
2022-09-30T06:59:21.478Z,10.95
2022-09-30T07:01:50.926Z,11.32
2022-09-30T07:04:20.546Z,11.15
2022-09-30T07:06:48.603Z,11.13
2022-09-30T07:09:17.860Z,11.80
2022-09-30T07:11:46.015Z,11.63
2022-09-30T07:14:14.526Z,12.27
2022-09-30T07:16:44.808Z,12.00
2022-09-30T07:19:14.675Z,11.98
2022-09-30T07:21:42.721Z,11.60
2022-09-30T07:24:11.677Z,11.82
2022-09-30T07:26:40.214Z,11.73
2022-09-30T07:29:08.312Z,11.98
2022-09-30T07:31:36.606Z,10.43
2022-09-30T07:34:07.704Z,10.10
2022-09-30T07:36:38.296Z,10.45
2022-09-30T07:39:09.157Z,10.05
2022-09-30T07:41:39.615Z,9.70
2022-09-30T07:44:12.294Z,9.15
2022-09-30T07:46:40.630Z,9.35
2022-09-30T07:49:13.512Z,9.13
2022-09-30T07:51:45.523Z,9.18
2022-09-30T07:54:15.649Z,9.55
2022-09-30T07:57:09.395Z,8.55
2022-09-30T07:59:34.628Z,7.60
2022-09-30T08:02:02.856Z,8.20
2022-09-30T08:04:31.178Z,7.07
2022-09-30T08:07:02.701Z,6.28
2022-09-30T08:09:31.799Z,5.68
2022-09-30T08:12:00.110Z,6.00
2022-09-30T08:14:29.199Z,5.38
2022-09-30T08:16:58.555Z,5.88
2022-09-30T08:19:28.960Z,5.78
2022-09-30T08:21:57.608Z,5.72
2022-09-30T08:24:27.982Z,4.90
2022-09-30T08:26:56.692Z,5.03
2022-09-30T08:32:13.053Z,4.20
2022-09-30T08:34:41.101Z,4.45
2022-09-30T08:37:10.264Z,3.95
2022-09-30T08:39:40.085Z,4.75
2022-09-30T08:42:36.841Z,3.70
2022-09-30T08:45:16.453Z,3.83
2022-09-30T08:47:50.202Z,3.80
2022-09-30T08:50:29.236Z,3.80
2022-09-30T08:53:02.513Z,4.00
2022-09-30T08:55:39.380Z,3.63
2022-09-30T08:58:12.280Z,3.53
2022-09-30T09:00:41.809Z,3.58
2022-09-30T09:03:14.328Z,3.78
2022-09-30T09:05:54.833Z,3.67
2022-09-30T09:08:30.548Z,4.05
2022-09-30T09:11:09.071Z,3.85
2022-09-30T09:13:50.985Z,4.13
2022-09-30T09:16:25.507Z,4.22
2022-09-30T09:19:00.393Z,3.78
2022-09-30T09:21:38.029Z,3.65
2022-09-30T09:24:12.178Z,3.55
2022-09-30T09:26:41.553Z,3.05
2022-09-30T09:29:23.689Z,3.00
2022-09-30T09:31:51.842Z,2.70
2022-09-30T09:34:19.946Z,3.42
2022-09-30T09:37:03.257Z,2.70
2022-09-30T09:39:47.784Z,3.67
2022-09-30T09:42:31.067Z,3.60
2022-09-30T09:45:03.819Z,3.75
2022-09-30T09:47:32.328Z,3.75
2022-09-30T09:50:04.453Z,4.53
2022-09-30T09:52:58.325Z,4.00
2022-09-30T09:55:26.414Z,4.75
2022-09-30T09:58:11.189Z,4.80
2022-09-30T10:00:55.748Z,4.03
2022-09-30T10:03:26.594Z,4.60
2022-09-30T10:06:04.713Z,4.63
2022-09-30T10:08:34.398Z,5.15
2022-09-30T10:11:04.666Z,5.70
2022-09-30T10:13:42.253Z,5.07
2022-09-30T10:16:28.653Z,4.85
2022-09-30T10:18:56.965Z,4.43
2022-09-30T10:21:27.227Z,4.53
2022-09-30T10:23:57.520Z,4.72
2022-09-30T10:29:05.062Z,4.50
2022-09-30T10:31:36.397Z,3.80
2022-09-30T10:34:12.633Z,4.47
2022-09-30T10:36:44.701Z,4.40
2022-09-30T10:39:23.239Z,4.40
2022-09-30T10:41:52.785Z,4.32
2022-09-30T10:44:24.706Z,4.20
2022-09-30T10:46:54.675Z,4.32
2022-09-30T10:49:28.338Z,4.25
2022-09-30T10:51:57.101Z,4.03
2022-09-30T10:54:49.584Z,4.00
2022-09-30T10:57:22.174Z,4.25
2022-09-30T10:59:53.998Z,4.50
2022-09-30T11:02:31.519Z,4.32
2022-09-30T11:05:11.726Z,4.22
2022-09-30T11:07:46.230Z,4.20
2022-09-30T11:10:28.377Z,4.00
2022-09-30T11:13:01.780Z,4.00
2022-09-30T11:15:36.903Z,3.60
2022-09-30T11:18:12.950Z,3.83
2022-09-30T11:20:45.937Z,4.00
2022-09-30T11:23:21.234Z,3.67
2022-09-30T11:25:56.307Z,3.13
2022-09-30T11:28:59.620Z,2.30
2022-09-30T11:31:34.122Z,2.13
2022-09-30T11:34:16.659Z,1.70
2022-09-30T11:36:53.234Z,2.10
2022-09-30T11:39:44.568Z,2.40
2022-09-30T11:42:20.393Z,2.40
2022-09-30T11:44:50.314Z,2.70
2022-09-30T11:47:41.244Z,2.05
2022-09-30T11:50:24.363Z,2.25
2022-09-30T11:53:03.687Z,1.90
2022-09-30T11:55:45.388Z,2.58
2022-09-30T11:58:39.862Z,2.58
2022-09-30T12:01:15.669Z,2.85
2022-09-30T12:03:48.923Z,2.97
2022-09-30T12:06:23.137Z,2.72
2022-09-30T12:08:59.841Z,3.25
2022-09-30T12:11:35.121Z,2.95
2022-09-30T12:14:08.417Z,2.95
2022-09-30T12:16:38.915Z,3.35
2022-09-30T12:19:16.395Z,3.60
2022-09-30T12:21:53.253Z,3.42
2022-09-30T12:24:29.882Z,3.88
2022-09-30T12:26:59.095Z,2.33
2022-09-30T12:29:49.019Z,2.78
2022-09-30T12:33:13.829Z,3.22
2022-09-30T12:36:15.160Z,2.45
2022-09-30T12:39:25.978Z,3.03
2022-09-30T12:42:07.215Z,3.40
2022-09-30T12:45:07.949Z,3.53
2022-09-30T12:47:45.879Z,3.95
2022-09-30T12:50:17.205Z,3.70
2022-09-30T12:52:45.710Z,3.60
2022-09-30T12:55:25.621Z,4.90
2022-09-30T12:57:54.560Z,4.72
2022-09-30T13:00:25.232Z,4.75
2022-09-30T13:02:58.010Z,5.88
2022-09-30T13:05:55.071Z,6.38
2022-09-30T13:08:44.239Z,5.97
2022-09-30T13:11:42.630Z,5.78
2022-09-30T13:14:25.069Z,6.43
2022-09-30T13:17:25.522Z,5.78
2022-09-30T13:19:55.919Z,5.45
2022-09-30T13:22:58.184Z,5.05
2022-09-30T13:25:26.590Z,5.05
2022-09-30T13:28:34.158Z,5.40
2022-09-30T13:31:25.429Z,5.18
2022-09-30T13:34:11.346Z,5.40
2022-09-30T13:36:57.789Z,5.78
2022-09-30T13:39:29.054Z,6.25
2022-09-30T13:42:07.388Z,6.50
2022-09-30T13:44:45.825Z,6.25
2022-09-30T13:47:26.386Z,7.05
2022-09-30T13:50:01.326Z,8.90
2022-09-30T13:52:32.614Z,8.35
2022-09-30T13:55:06.649Z,9.13
2022-09-30T13:57:47.778Z,8.25
2022-09-30T14:00:18.750Z,9.32
2022-09-30T14:03:07.074Z,8.82
2022-09-30T14:05:56.857Z,9.68
2022-09-30T14:08:48.065Z,8.80
2022-09-30T14:11:39.222Z,10.82
2022-09-30T14:14:23.100Z,9.57
2022-09-30T14:17:18.051Z,9.25
2022-09-30T14:20:00.315Z,9.18
2022-09-30T14:22:30.581Z,9.05
2022-09-30T14:24:59.214Z,8.82
2022-09-30T14:27:49.525Z,8.65
2022-09-30T14:30:21.066Z,8.60
2022-09-30T14:32:52.033Z,8.60
2022-09-30T14:35:23.445Z,8.48
2022-09-30T14:37:53.750Z,9.38
2022-09-30T14:40:26.975Z,8.70
2022-09-30T14:42:59.355Z,8.77
2022-09-30T14:45:30.139Z,9.43
2022-09-30T14:48:02.577Z,9.68
2022-09-30T14:50:38.015Z,9.23
2022-09-30T14:53:06.757Z,10.13
2022-09-30T14:55:38.040Z,10.18
2022-09-30T14:58:26.854Z,10.07
2022-09-30T15:01:02.805Z,10.20
2022-09-30T15:03:33.392Z,9.75
2022-09-30T15:06:03.257Z,9.20
2022-09-30T15:08:31.751Z,9.60
2022-09-30T15:10:59.862Z,10.23
2022-09-30T15:13:31.231Z,9.48
2022-09-30T15:15:59.609Z,9.57
2022-09-30T15:18:33.074Z,9.50
2022-09-30T15:21:13.303Z,9.60
2022-09-30T15:23:44.006Z,8.65
2022-09-30T15:26:13.845Z,10.52
2022-09-30T15:28:41.941Z,9.98
2022-09-30T15:31:23.390Z,9.85
2022-09-30T15:34:05.492Z,9.68
2022-09-30T15:36:36.990Z,9.25
2022-09-30T15:39:07.027Z,9.02
2022-09-30T15:41:41.154Z,9.48
2022-09-30T15:44:17.970Z,9.32
2022-09-30T15:47:03.169Z,10.60
2022-09-30T15:49:35.102Z,9.93
2022-09-30T15:52:30.534Z,10.20
2022-09-30T15:54:59.333Z,10.02
2022-09-30T15:57:45.562Z,11.25
2022-09-30T16:00:34.681Z,11.02
2022-09-30T16:03:26.017Z,11.18
2022-09-30T16:05:54.677Z,11.57
2022-09-30T16:08:28.446Z,11.55
2022-09-30T16:10:59.167Z,12.02
2022-09-30T16:13:30.783Z,11.60
2022-09-30T16:15:59.509Z,12.32
2022-09-30T16:18:32.668Z,11.60
2022-09-30T16:21:05.366Z,13.20
2022-09-30T16:23:37.658Z,18.85
2022-09-30T16:26:24.462Z,13.10
2022-09-30T16:28:53.582Z,12.95
2022-09-30T16:31:21.821Z,13.40
2022-09-30T16:33:49.945Z,12.95
2022-09-30T16:36:18.044Z,13.52
2022-09-30T16:38:47.455Z,14.00
2022-09-30T16:41:15.619Z,13.88
2022-09-30T16:43:44.661Z,13.23
2022-09-30T16:46:13.622Z,13.68
2022-09-30T16:48:41.717Z,13.13
2022-09-30T16:51:15.457Z,14.00
2022-09-30T16:53:44.071Z,13.18
2022-09-30T16:56:17.411Z,13.73
2022-09-30T16:58:46.033Z,14.82
2022-09-30T17:01:20.469Z,15.63
2022-09-30T17:03:49.126Z,14.55
2022-09-30T17:06:18.998Z,15.55
2022-09-30T17:08:49.477Z,14.05
2022-09-30T17:11:19.582Z,14.95
2022-09-30T17:13:47.765Z,14.55
2022-09-30T17:16:15.819Z,15.57
2022-09-30T17:18:43.851Z,14.48
2022-09-30T17:21:12.044Z,14.77
2022-09-30T17:23:40.792Z,17.10
2022-09-30T17:26:08.867Z,22.40
2022-09-30T17:28:38.368Z,24.40
2022-09-30T17:31:07.023Z,16.75
2022-09-30T17:33:37.253Z,16.55
2022-09-30T17:36:07.632Z,14.70
2022-09-30T17:38:36.040Z,15.95
2022-09-30T17:41:22.432Z,15.23
2022-09-30T17:43:52.018Z,16.30
2022-09-30T17:46:23.550Z,15.45
2022-09-30T17:48:56.295Z,14.77
2022-09-30T17:51:24.542Z,14.65
2022-09-30T17:53:52.539Z,15.82
2022-09-30T17:56:22.722Z,15.15
2022-09-30T17:58:52.391Z,16.23
2022-09-30T18:01:22.332Z,15.10
2022-09-30T18:03:53.033Z,14.00
2022-09-30T18:06:21.485Z,14.63
2022-09-30T18:08:49.697Z,14.57
2022-09-30T18:11:21.154Z,13.60
2022-09-30T18:13:55.098Z,13.98
2022-09-30T18:16:24.540Z,14.77
2022-09-30T18:18:52.878Z,15.18
2022-09-30T18:21:20.997Z,14.85
2022-09-30T18:23:53.290Z,13.65
2022-09-30T18:26:24.033Z,14.95
2022-09-30T18:28:54.158Z,13.55
2022-09-30T18:31:28.541Z,13.93
2022-09-30T18:33:57.080Z,13.80
2022-09-30T18:36:26.648Z,13.50
2022-09-30T18:38:58.706Z,13.50
2022-09-30T18:41:27.859Z,12.40
2022-09-30T18:44:02.416Z,13.02
2022-09-30T18:46:31.490Z,12.18
2022-09-30T18:48:59.702Z,11.80
2022-09-30T18:51:29.216Z,12.18
2022-09-30T18:53:59.420Z,12.60
2022-09-30T18:56:31.424Z,11.70
2022-09-30T18:59:03.607Z,12.05
2022-09-30T19:01:33.156Z,12.05
2022-09-30T19:04:03.875Z,12.45
2022-09-30T19:06:32.134Z,12.10
2022-09-30T19:09:00.349Z,10.70
2022-09-30T19:11:30.573Z,11.25
2022-09-30T19:14:02.530Z,11.18
2022-09-30T19:16:35.349Z,11.18
2022-09-30T19:19:08.186Z,10.60
2022-09-30T19:21:36.246Z,15.55
2022-09-30T19:24:05.410Z,12.48
2022-09-30T19:26:34.394Z,13.05
2022-09-30T19:29:05.356Z,12.77
2022-09-30T19:31:35.003Z,20.25
2022-09-30T19:34:04.049Z,12.98
2022-09-30T19:36:38.258Z,18.98
2022-09-30T19:39:12.176Z,13.63
2022-09-30T19:41:40.810Z,12.63
2022-09-30T19:44:10.207Z,12.25
2022-09-30T19:46:38.294Z,10.90
2022-09-30T19:49:06.328Z,12.30
2022-09-30T19:51:34.798Z,14.23
2022-09-30T19:54:07.304Z,9.52
2022-09-30T19:56:36.356Z,9.52
2022-09-30T19:59:05.281Z,9.55
2022-09-30T20:01:35.657Z,8.88
2022-09-30T20:04:05.356Z,9.25
2022-09-30T20:06:34.683Z,9.45
2022-09-30T20:09:05.732Z,8.48
2022-09-30T20:11:36.392Z,9.13
2022-09-30T20:14:23.897Z,9.15
2022-09-30T20:16:54.443Z,8.50
2022-09-30T20:19:23.107Z,8.77
2022-09-30T20:21:51.809Z,8.60
2022-09-30T20:24:20.006Z,8.05
2022-09-30T20:26:50.218Z,7.88
2022-09-30T20:29:20.506Z,7.88
2022-09-30T20:31:50.416Z,8.23
2022-09-30T20:34:20.225Z,10.20
2022-09-30T20:36:48.463Z,8.35
2022-09-30T20:39:16.550Z,7.30
2022-09-30T20:41:46.161Z,7.05
2022-09-30T20:44:16.099Z,6.72
2022-09-30T20:46:44.122Z,6.28
2022-09-30T20:49:12.142Z,6.05
2022-09-30T20:51:41.521Z,5.45
2022-09-30T20:54:10.482Z,5.80
2022-09-30T20:57:05.380Z,5.63
2022-09-30T20:59:26.581Z,5.18
2022-09-30T21:01:54.609Z,5.40
2022-09-30T21:04:22.682Z,5.10
2022-09-30T21:06:52.056Z,4.75
2022-09-30T21:09:20.077Z,5.20
2022-09-30T21:11:48.075Z,5.60
2022-09-30T21:14:19.360Z,4.82
2022-09-30T21:16:47.425Z,4.70
2022-09-30T21:19:15.437Z,5.13
2022-09-30T21:21:43.452Z,4.78
2022-09-30T21:24:16.034Z,5.07
2022-09-30T21:26:44.310Z,4.53
2022-09-30T21:29:12.285Z,4.15
2022-09-30T21:31:40.508Z,4.57
2022-09-30T21:34:08.537Z,4.50
2022-09-30T21:36:36.565Z,4.80
2022-09-30T21:39:04.609Z,4.60
2022-09-30T21:41:35.723Z,4.43
2022-09-30T21:44:04.344Z,4.25
2022-09-30T21:46:35.596Z,4.20
2022-09-30T21:49:08.023Z,3.92
2022-09-30T21:51:36.503Z,4.00
2022-09-30T21:54:04.574Z,4.03
2022-09-30T21:56:33.934Z,4.07
2022-09-30T21:59:01.922Z,4.18
2022-09-30T22:01:30.591Z,4.10
2022-09-30T22:03:58.970Z,3.40
2022-09-30T22:06:28.534Z,3.90
2022-09-30T22:08:56.589Z,3.65
2022-09-30T22:11:25.223Z,3.40
2022-09-30T22:13:56.952Z,3.63
2022-09-30T22:16:27.295Z,3.60
2022-09-30T22:18:57.404Z,3.75
2022-09-30T22:21:26.856Z,3.60
2022-09-30T22:23:55.140Z,3.30
2022-09-30T22:26:24.649Z,3.80
2022-09-30T22:28:57.261Z,3.33
2022-09-30T22:31:27.970Z,3.80
2022-09-30T22:34:16.117Z,3.83
2022-09-30T22:37:01.787Z,3.47
2022-09-30T22:39:30.575Z,3.75
2022-09-30T22:41:59.699Z,3.60
2022-09-30T22:44:33.306Z,3.20
2022-09-30T22:47:01.997Z,3.28
2022-09-30T22:49:32.529Z,3.38
2022-09-30T22:52:01.931Z,3.03
2022-09-30T22:54:30.601Z,3.10
2022-09-30T22:57:00.180Z,3.42
2022-09-30T22:59:30.724Z,3.00
2022-09-30T23:01:58.868Z,3.30
2022-09-30T23:04:27.508Z,3.40
2022-09-30T23:06:56.462Z,2.92
2022-09-30T23:09:25.173Z,2.83
2022-09-30T23:11:57.012Z,3.28
2022-09-30T23:14:25.559Z,2.90
2022-09-30T23:16:55.004Z,3.58
2022-09-30T23:19:23.105Z,2.83
2022-09-30T23:21:51.122Z,2.95
2022-09-30T23:24:19.187Z,2.72
2022-09-30T23:26:47.209Z,3.38
2022-09-30T23:29:15.893Z,3.05
2022-09-30T23:31:43.885Z,2.40
2022-09-30T23:34:13.351Z,3.00
2022-09-30T23:36:41.569Z,2.90
2022-09-30T23:39:14.442Z,3.03
2022-09-30T23:41:46.348Z,3.00
2022-09-30T23:44:14.752Z,2.83
2022-09-30T23:47:03.289Z,3.05
2022-09-30T23:49:35.821Z,3.30
2022-09-30T23:52:04.982Z,3.40
2022-09-30T23:54:34.180Z,3.58
2022-09-30T23:57:03.169Z,3.47
2022-09-30T23:59:31.401Z,3.17
